sensor_id;sensor_type;location;lat;lon;timestamp;pressure;altitude;pressure_sealevel;temperature;humidity
30708;BME280;17458;48.958;8.284;2023-09-19T00:00:10;99934.38;;;19.90;77.52
30708;BME280;17458;48.958;8.284;2023-09-19T00:02:57;99937.03;;;19.84;77.66
30708;BME280;17458;48.958;8.284;2023-09-19T00:05:43;99940.94;;;20.41;75.24
30708;BME280;17458;48.958;8.284;2023-09-19T00:08:28;99930.88;;;20.11;76.15
30708;BME280;17458;48.958;8.284;2023-09-19T00:11:12;99942.38;;;19.75;77.69
30708;BME280;17458;48.958;8.284;2023-09-19T00:13:55;99939.75;;;19.86;76.81
30708;BME280;17458;48.958;8.284;2023-09-19T00:16:40;99939.78;;;19.92;76.83
30708;BME280;17458;48.958;8.284;2023-09-19T00:19:24;99940.63;;;19.86;76.43
30708;BME280;17458;48.958;8.284;2023-09-19T00:22:08;99947.06;;;20.11;75.66
30708;BME280;17458;48.958;8.284;2023-09-19T00:24:52;99944.38;;;20.11;75.70
30708;BME280;17458;48.958;8.284;2023-09-19T00:27:38;99952.47;;;20.15;75.61
30708;BME280;17458;48.958;8.284;2023-09-19T00:30:25;99940.88;;;20.33;74.77
30708;BME280;17458;48.958;8.284;2023-09-19T00:33:11;99946.00;;;19.78;76.88
30708;BME280;17458;48.958;8.284;2023-09-19T00:35:59;99951.38;;;19.78;77.54
30708;BME280;17458;48.958;8.284;2023-09-19T00:38:45;99947.78;;;19.81;76.85
30708;BME280;17458;48.958;8.284;2023-09-19T00:41:31;99938.09;;;20.13;75.76
30708;BME280;17458;48.958;8.284;2023-09-19T00:44:15;99945.94;;;19.71;77.14
30708;BME280;17458;48.958;8.284;2023-09-19T00:47:00;99942.47;;;19.92;75.95
30708;BME280;17458;48.958;8.284;2023-09-19T00:49:46;99948.78;;;19.97;75.90
30708;BME280;17458;48.958;8.284;2023-09-19T00:52:34;99953.31;;;20.04;75.72
30708;BME280;17458;48.958;8.284;2023-09-19T00:55:22;99973.25;;;20.35;74.16
30708;BME280;17458;48.958;8.284;2023-09-19T00:58:07;99965.06;;;20.15;74.69
30708;BME280;17458;48.958;8.284;2023-09-19T01:00:52;99976.00;;;20.41;73.18
30708;BME280;17458;48.958;8.284;2023-09-19T01:03:37;99978.72;;;20.44;73.32
30708;BME280;17458;48.958;8.284;2023-09-19T01:06:21;99975.81;;;20.06;74.53
30708;BME280;17458;48.958;8.284;2023-09-19T01:09:05;99975.94;;;20.30;73.70
30708;BME280;17458;48.958;8.284;2023-09-19T01:11:51;99975.97;;;20.38;73.26
30708;BME280;17458;48.958;8.284;2023-09-19T01:17:41;99984.00;;;20.30;72.95
30708;BME280;17458;48.958;8.284;2023-09-19T01:20:39;99994.88;;;20.41;73.21
30708;BME280;17458;48.958;8.284;2023-09-19T01:29:51;99990.28;;;20.26;73.98
30708;BME280;17458;48.958;8.284;2023-09-19T01:32:38;99994.00;;;20.42;73.42
30708;BME280;17458;48.958;8.284;2023-09-19T01:35:23;99996.69;;;20.42;73.06
30708;BME280;17458;48.958;8.284;2023-09-19T01:38:07;100007.28;;;20.13;74.17
30708;BME280;17458;48.958;8.284;2023-09-19T01:41:04;100005.53;;;20.24;74.39
30708;BME280;17458;48.958;8.284;2023-09-19T01:43:53;100002.75;;;20.04;74.69
30708;BME280;17458;48.958;8.284;2023-09-19T01:46:40;100003.72;;;20.15;74.55
30708;BME280;17458;48.958;8.284;2023-09-19T01:49:37;100000.06;;;20.06;74.54
30708;BME280;17458;48.958;8.284;2023-09-19T01:52:28;100017.19;;;20.17;74.58
30708;BME280;17458;48.958;8.284;2023-09-19T01:55:15;100017.44;;;20.58;72.84
30708;BME280;17458;48.958;8.284;2023-09-19T01:58:20;100016.47;;;20.42;73.50
30708;BME280;17458;48.958;8.284;2023-09-19T02:01:06;100019.97;;;20.35;74.21
30708;BME280;17458;48.958;8.284;2023-09-19T02:03:53;100024.41;;;20.23;74.62
30708;BME280;17458;48.958;8.284;2023-09-19T02:06:43;100022.50;;;20.03;75.38
30708;BME280;17458;48.958;8.284;2023-09-19T02:09:27;100016.31;;;20.24;74.74
30708;BME280;17458;48.958;8.284;2023-09-19T02:12:11;100021.81;;;20.36;73.86
30708;BME280;17458;48.958;8.284;2023-09-19T02:14:55;100017.28;;;20.35;73.75
30708;BME280;17458;48.958;8.284;2023-09-19T02:17:44;100027.13;;;20.21;74.70
30708;BME280;17458;48.958;8.284;2023-09-19T02:20:29;100032.75;;;20.65;72.52
30708;BME280;17458;48.958;8.284;2023-09-19T02:23:14;100033.41;;;20.26;74.54
30708;BME280;17458;48.958;8.284;2023-09-19T02:25:59;100030.91;;;20.49;73.62
30708;BME280;17458;48.958;8.284;2023-09-19T02:28:47;100041.53;;;20.29;74.70
30708;BME280;17458;48.958;8.284;2023-09-19T02:31:31;100036.25;;;20.41;74.06
30708;BME280;17458;48.958;8.284;2023-09-19T02:34:15;100031.78;;;20.48;73.62
30708;BME280;17458;48.958;8.284;2023-09-19T02:37:01;100046.94;;;20.35;74.33
30708;BME280;17458;48.958;8.284;2023-09-19T02:39:45;100054.25;;;20.50;73.79
30708;BME280;17458;48.958;8.284;2023-09-19T02:42:30;100047.13;;;20.66;73.39
30708;BME280;17458;48.958;8.284;2023-09-19T02:45:14;100054.94;;;20.15;74.94
30708;BME280;17458;48.958;8.284;2023-09-19T02:47:59;100055.88;;;20.21;75.64
30708;BME280;17458;48.958;8.284;2023-09-19T02:50:43;100065.88;;;20.38;74.60
30708;BME280;17458;48.958;8.284;2023-09-19T02:53:27;100059.28;;;19.95;77.42
30708;BME280;17458;48.958;8.284;2023-09-19T02:56:12;100057.44;;;19.88;77.63
30708;BME280;17458;48.958;8.284;2023-09-19T02:58:57;100064.75;;;20.09;77.33
30708;BME280;17458;48.958;8.284;2023-09-19T03:01:45;100061.06;;;19.96;77.52
30708;BME280;17458;48.958;8.284;2023-09-19T03:04:32;100059.25;;;19.94;78.50
30708;BME280;17458;48.958;8.284;2023-09-19T03:07:17;100064.44;;;19.68;79.50
30708;BME280;17458;48.958;8.284;2023-09-19T03:10:01;100058.31;;;19.86;79.16
30708;BME280;17458;48.958;8.284;2023-09-19T03:12:46;100053.84;;;19.88;79.39
30708;BME280;17458;48.958;8.284;2023-09-19T03:15:30;100070.03;;;19.94;78.66
30708;BME280;17458;48.958;8.284;2023-09-19T03:18:14;100057.38;;;19.83;78.99
30708;BME280;17458;48.958;8.284;2023-09-19T03:20:58;100069.25;;;20.04;77.95
30708;BME280;17458;48.958;8.284;2023-09-19T03:23:44;100063.56;;;19.70;79.59
30708;BME280;17458;48.958;8.284;2023-09-19T03:26:31;100060.13;;;19.87;78.90
30708;BME280;17458;48.958;8.284;2023-09-19T03:29:15;100064.91;;;20.30;76.91
30708;BME280;17458;48.958;8.284;2023-09-19T03:32:02;100063.66;;;19.82;79.23
30708;BME280;17458;48.958;8.284;2023-09-19T03:34:47;100063.84;;;20.04;78.29
30708;BME280;17458;48.958;8.284;2023-09-19T03:37:33;100066.38;;;19.82;79.55
30708;BME280;17458;48.958;8.284;2023-09-19T03:40:17;100068.41;;;20.14;77.92
30708;BME280;17458;48.958;8.284;2023-09-19T03:43:04;100063.78;;;19.98;78.80
30708;BME280;17458;48.958;8.284;2023-09-19T03:45:48;100063.06;;;20.18;77.83
30708;BME280;17458;48.958;8.284;2023-09-19T03:48:32;100072.00;;;20.16;77.93
30708;BME280;17458;48.958;8.284;2023-09-19T03:51:17;100075.50;;;20.00;78.36
30708;BME280;17458;48.958;8.284;2023-09-19T03:54:01;100089.94;;;20.11;78.12
30708;BME280;17458;48.958;8.284;2023-09-19T03:56:45;100073.53;;;19.77;79.44
30708;BME280;17458;48.958;8.284;2023-09-19T03:59:29;100086.34;;;20.06;78.21
30708;BME280;17458;48.958;8.284;2023-09-19T04:02:13;100081.13;;;20.35;77.44
30708;BME280;17458;48.958;8.284;2023-09-19T04:05:07;100084.63;;;20.18;78.09
30708;BME280;17458;48.958;8.284;2023-09-19T04:07:53;100089.28;;;20.41;77.11
30708;BME280;17458;48.958;8.284;2023-09-19T04:10:38;100096.63;;;20.63;76.20
30708;BME280;17458;48.958;8.284;2023-09-19T04:13:22;100088.47;;;20.56;76.39
30708;BME280;17458;48.958;8.284;2023-09-19T04:16:05;100102.03;;;20.71;75.81
30708;BME280;17458;48.958;8.284;2023-09-19T04:18:53;100098.38;;;20.58;76.56
30708;BME280;17458;48.958;8.284;2023-09-19T04:21:37;100103.81;;;20.66;76.15
30708;BME280;17458;48.958;8.284;2023-09-19T04:24:21;100115.50;;;20.65;76.80
30708;BME280;17458;48.958;8.284;2023-09-19T04:27:05;100114.38;;;20.31;78.61
30708;BME280;17458;48.958;8.284;2023-09-19T04:29:50;100120.63;;;20.27;78.80
30708;BME280;17458;48.958;8.284;2023-09-19T04:32:37;100113.09;;;19.85;81.55
30708;BME280;17458;48.958;8.284;2023-09-19T04:35:24;100112.13;;;19.79;80.29
30708;BME280;17458;48.958;8.284;2023-09-19T04:38:10;100120.19;;;19.75;80.61
30708;BME280;17458;48.958;8.284;2023-09-19T04:40:58;100122.09;;;19.87;79.61
30708;BME280;17458;48.958;8.284;2023-09-19T04:43:42;100121.22;;;19.89;78.41
30708;BME280;17458;48.958;8.284;2023-09-19T04:46:26;100118.19;;;19.54;79.14
30708;BME280;17458;48.958;8.284;2023-09-19T04:49:10;100122.97;;;19.84;78.28
30708;BME280;17458;48.958;8.284;2023-09-19T04:51:55;100133.59;;;19.67;78.75
30708;BME280;17458;48.958;8.284;2023-09-19T04:54:39;100129.97;;;19.62;78.68
30708;BME280;17458;48.958;8.284;2023-09-19T04:57:25;100129.31;;;19.89;78.00
30708;BME280;17458;48.958;8.284;2023-09-19T05:00:10;100128.47;;;19.98;77.24
30708;BME280;17458;48.958;8.284;2023-09-19T05:02:57;100135.34;;;19.65;78.19
30708;BME280;17458;48.958;8.284;2023-09-19T05:05:41;100139.19;;;19.89;78.12
30708;BME280;17458;48.958;8.284;2023-09-19T05:08:26;100146.50;;;20.03;77.07
30708;BME280;17458;48.958;8.284;2023-09-19T05:11:10;100158.13;;;19.98;77.51
30708;BME280;17458;48.958;8.284;2023-09-19T05:13:54;100158.78;;;19.71;78.49
30708;BME280;17458;48.958;8.284;2023-09-19T05:16:38;100163.28;;;19.73;77.94
30708;BME280;17458;48.958;8.284;2023-09-19T05:19:24;100160.81;;;19.98;77.38
30708;BME280;17458;48.958;8.284;2023-09-19T05:22:08;100178.81;;;19.99;76.92
30708;BME280;17458;48.958;8.284;2023-09-19T05:24:51;100179.66;;;19.96;77.17
30708;BME280;17458;48.958;8.284;2023-09-19T05:27:36;100174.38;;;20.05;76.70
30708;BME280;17458;48.958;8.284;2023-09-19T05:30:20;100181.47;;;19.96;76.99
30708;BME280;17458;48.958;8.284;2023-09-19T05:33:05;100181.53;;;20.00;76.20
30708;BME280;17458;48.958;8.284;2023-09-19T05:35:50;100190.34;;;19.86;76.70
30708;BME280;17458;48.958;8.284;2023-09-19T05:38:34;100200.84;;;19.58;78.17
30708;BME280;17458;48.958;8.284;2023-09-19T05:41:19;100200.84;;;19.58;78.29
30708;BME280;17458;48.958;8.284;2023-09-19T05:44:03;100202.75;;;19.70;77.37
30708;BME280;17458;48.958;8.284;2023-09-19T05:46:47;100197.34;;;19.64;77.87
30708;BME280;17458;48.958;8.284;2023-09-19T05:49:32;100206.28;;;19.61;77.79
30708;BME280;17458;48.958;8.284;2023-09-19T05:52:16;100213.66;;;19.82;76.73
30708;BME280;17458;48.958;8.284;2023-09-19T05:55:01;100210.38;;;20.12;75.62
30708;BME280;17458;48.958;8.284;2023-09-19T05:57:52;100215.34;;;19.69;76.23
30708;BME280;17458;48.958;8.284;2023-09-19T06:00:36;100218.19;;;19.85;75.33
30708;BME280;17458;48.958;8.284;2023-09-19T06:03:20;100229.06;;;19.95;74.63
30708;BME280;17458;48.958;8.284;2023-09-19T06:06:04;100221.38;;;19.48;76.83
30708;BME280;17458;48.958;8.284;2023-09-19T06:08:50;100225.38;;;19.84;75.29
30708;BME280;17458;48.958;8.284;2023-09-19T06:11:35;100230.72;;;19.81;74.34
30708;BME280;17458;48.958;8.284;2023-09-19T06:14:19;100229.06;;;19.18;77.15
30708;BME280;17458;48.958;8.284;2023-09-19T06:17:03;100230.53;;;19.61;75.62
30708;BME280;17458;48.958;8.284;2023-09-19T06:19:47;100236.03;;;19.73;74.65
30708;BME280;17458;48.958;8.284;2023-09-19T06:22:31;100234.16;;;19.66;74.57
30708;BME280;17458;48.958;8.284;2023-09-19T06:25:16;100231.44;;;19.63;74.66
30708;BME280;17458;48.958;8.284;2023-09-19T06:28:03;100233.06;;;19.49;75.33
30708;BME280;17458;48.958;8.284;2023-09-19T06:30:49;100237.59;;;19.55;74.69
30708;BME280;17458;48.958;8.284;2023-09-19T06:33:33;100240.44;;;19.65;73.97
30708;BME280;17458;48.958;8.284;2023-09-19T06:36:17;100242.38;;;19.80;72.86
30708;BME280;17458;48.958;8.284;2023-09-19T06:39:02;100246.06;;;19.85;71.90
30708;BME280;17458;48.958;8.284;2023-09-19T06:41:48;100243.22;;;19.73;71.82
30708;BME280;17458;48.958;8.284;2023-09-19T06:44:33;100247.91;;;19.94;70.99
30708;BME280;17458;48.958;8.284;2023-09-19T06:47:17;100253.50;;;20.12;69.94
30708;BME280;17458;48.958;8.284;2023-09-19T06:50:01;100247.91;;;19.91;70.33
30708;BME280;17458;48.958;8.284;2023-09-19T06:52:46;100259.94;;;20.26;69.81
30708;BME280;17458;48.958;8.284;2023-09-19T06:55:33;100259.38;;;20.61;68.49
30708;BME280;17458;48.958;8.284;2023-09-19T06:58:18;100256.69;;;20.61;68.66
30708;BME280;17458;48.958;8.284;2023-09-19T07:01:03;100255.44;;;20.27;69.08
30708;BME280;17458;48.958;8.284;2023-09-19T07:03:46;100264.78;;;20.61;68.32
30708;BME280;17458;48.958;8.284;2023-09-19T07:06:31;100264.56;;;20.36;68.78
30708;BME280;17458;48.958;8.284;2023-09-19T07:09:14;100261.09;;;20.52;68.54
30708;BME280;17458;48.958;8.284;2023-09-19T07:11:58;100270.28;;;20.74;68.15
30708;BME280;17458;48.958;8.284;2023-09-19T07:14:42;100270.41;;;20.90;67.38
30708;BME280;17458;48.958;8.284;2023-09-19T07:17:26;100275.28;;;21.54;66.39
30708;BME280;17458;48.958;8.284;2023-09-19T07:20:11;100280.69;;;21.53;66.17
30708;BME280;17458;48.958;8.284;2023-09-19T07:22:59;100289.88;;;21.98;64.77
30708;BME280;17458;48.958;8.284;2023-09-19T07:25:44;100281.88;;;22.31;63.19
30708;BME280;17458;48.958;8.284;2023-09-19T07:28:29;100283.47;;;21.71;64.57
30708;BME280;17458;48.958;8.284;2023-09-19T07:31:13;100288.03;;;21.92;64.54
30708;BME280;17458;48.958;8.284;2023-09-19T07:33:57;100295.19;;;21.72;65.53
30708;BME280;17458;48.958;8.284;2023-09-19T07:36:41;100297.97;;;21.88;64.92
30708;BME280;17458;48.958;8.284;2023-09-19T07:39:26;100307.78;;;21.76;64.52
30708;BME280;17458;48.958;8.284;2023-09-19T07:42:10;100303.44;;;22.08;63.46
30708;BME280;17458;48.958;8.284;2023-09-19T07:44:55;100312.34;;;21.84;64.06
30708;BME280;17458;48.958;8.284;2023-09-19T07:47:39;100308.75;;;21.93;63.51
30708;BME280;17458;48.958;8.284;2023-09-19T07:50:23;100316.66;;;21.43;64.56
30708;BME280;17458;48.958;8.284;2023-09-19T07:53:07;100321.50;;;22.17;63.03
30708;BME280;17458;48.958;8.284;2023-09-19T07:55:51;100325.75;;;21.58;65.02
30708;BME280;17458;48.958;8.284;2023-09-19T07:58:40;100318.84;;;22.40;61.62
30708;BME280;17458;48.958;8.284;2023-09-19T08:01:27;100331.44;;;22.35;62.17
30708;BME280;17458;48.958;8.284;2023-09-19T08:04:11;100320.66;;;22.56;60.22
30708;BME280;17458;48.958;8.284;2023-09-19T08:06:55;100325.19;;;22.64;59.93
30708;BME280;17458;48.958;8.284;2023-09-19T08:09:42;100325.19;;;22.64;60.10
30708;BME280;17458;48.958;8.284;2023-09-19T08:12:30;100332.41;;;22.70;60.03
30708;BME280;17458;48.958;8.284;2023-09-19T08:15:19;100334.19;;;23.32;58.50
30708;BME280;17458;48.958;8.284;2023-09-19T08:18:06;100338.66;;;23.71;58.27
30708;BME280;17458;48.958;8.284;2023-09-19T08:20:52;100334.19;;;23.33;59.47
30708;BME280;17458;48.958;8.284;2023-09-19T08:23:37;100340.53;;;23.28;58.88
30708;BME280;17458;48.958;8.284;2023-09-19T08:26:22;100337.78;;;23.54;57.10
30708;BME280;17458;48.958;8.284;2023-09-19T08:29:08;100335.13;;;23.22;58.26
30708;BME280;17458;48.958;8.284;2023-09-19T08:31:55;100329.66;;;23.57;56.17
30708;BME280;17458;48.958;8.284;2023-09-19T08:34:39;100338.69;;;23.54;57.07
30708;BME280;17458;48.958;8.284;2023-09-19T08:37:23;100348.66;;;23.29;56.46
30708;BME280;17458;48.958;8.284;2023-09-19T08:40:08;100345.06;;;23.11;55.97
30708;BME280;17458;48.958;8.284;2023-09-19T08:42:56;100331.53;;;22.94;54.45
30708;BME280;17458;48.958;8.284;2023-09-19T08:45:40;100336.03;;;22.95;52.98
30708;BME280;17458;48.958;8.284;2023-09-19T08:48:29;100338.66;;;23.48;52.09
30708;BME280;17458;48.958;8.284;2023-09-19T08:51:27;100342.31;;;23.58;51.36
30708;BME280;17458;48.958;8.284;2023-09-19T08:54:25;100345.94;;;23.22;49.97
30708;BME280;17458;48.958;8.284;2023-09-19T08:57:13;100353.06;;;23.81;50.02
30708;BME280;17458;48.958;8.284;2023-09-19T09:00:06;100339.41;;;24.00;50.57
30708;BME280;17458;48.958;8.284;2023-09-19T09:02:55;100345.03;;;23.52;49.77
30708;BME280;17458;48.958;8.284;2023-09-19T09:05:41;100343.97;;;23.86;48.61
30708;BME280;17458;48.958;8.284;2023-09-19T09:08:30;100338.59;;;23.82;49.90
30708;BME280;17458;48.958;8.284;2023-09-19T09:11:15;100346.84;;;23.28;49.63
30708;BME280;17458;48.958;8.284;2023-09-19T09:14:00;100347.72;;;23.55;50.06
30708;BME280;17458;48.958;8.284;2023-09-19T09:16:44;100345.88;;;23.49;49.80
30708;BME280;17458;48.958;8.284;2023-09-19T09:19:30;100339.50;;;23.85;49.27
30708;BME280;17458;48.958;8.284;2023-09-19T09:22:15;100355.88;;;23.33;48.97
30708;BME280;17458;48.958;8.284;2023-09-19T09:25:02;100344.88;;;23.87;48.23
30708;BME280;17458;48.958;8.284;2023-09-19T09:27:58;100348.00;;;24.77;53.31
30708;BME280;17458;48.958;8.284;2023-09-19T09:30:43;100343.69;;;24.52;47.93
30708;BME280;17458;48.958;8.284;2023-09-19T09:33:27;100348.25;;;24.44;48.90
30708;BME280;17458;48.958;8.284;2023-09-19T09:36:12;100343.78;;;24.32;47.57
30708;BME280;17458;48.958;8.284;2023-09-19T09:38:59;100351.00;;;24.36;48.22
30708;BME280;17458;48.958;8.284;2023-09-19T09:41:43;100343.56;;;24.68;47.85
30708;BME280;17458;48.958;8.284;2023-09-19T09:44:28;100328.53;;;24.10;48.41
30708;BME280;17458;48.958;8.284;2023-09-19T09:47:42;100335.69;;;24.20;47.14
30708;BME280;17458;48.958;8.284;2023-09-19T09:50:35;100336.38;;;24.57;47.43
30708;BME280;17458;48.958;8.284;2023-09-19T09:53:29;100347.00;;;24.87;47.01
30708;BME280;17458;48.958;8.284;2023-09-19T09:56:15;100354.47;;;24.61;46.22
30708;BME280;17458;48.958;8.284;2023-09-19T09:59:00;100342.16;;;23.96;47.38
30708;BME280;17458;48.958;8.284;2023-09-19T10:01:48;100350.28;;;23.96;46.49
30708;BME280;17458;48.958;8.284;2023-09-19T10:04:32;100354.34;;;24.79;46.33
30708;BME280;17458;48.958;8.284;2023-09-19T10:07:27;100352.13;;;25.27;46.19
30708;BME280;17458;48.958;8.284;2023-09-19T10:10:12;100346.09;;;24.97;45.42
30708;BME280;17458;48.958;8.284;2023-09-19T10:12:59;100345.38;;;24.65;45.87
30708;BME280;17458;48.958;8.284;2023-09-19T10:15:51;100346.56;;;25.40;45.74
30708;BME280;17458;48.958;8.284;2023-09-19T10:18:38;100344.97;;;25.17;44.14
30708;BME280;17458;48.958;8.284;2023-09-19T10:21:23;100345.41;;;24.62;44.92
30708;BME280;17458;48.958;8.284;2023-09-19T10:24:08;100346.28;;;24.67;45.60
30708;BME280;17458;48.958;8.284;2023-09-19T10:26:52;100352.44;;;24.93;44.94
30708;BME280;17458;48.958;8.284;2023-09-19T10:29:39;100345.97;;;25.11;43.76
30708;BME280;17458;48.958;8.284;2023-09-19T10:32:23;100349.47;;;25.24;44.74
30708;BME280;17458;48.958;8.284;2023-09-19T10:35:11;100343.00;;;25.32;44.19
30708;BME280;17458;48.958;8.284;2023-09-19T10:38:00;100339.22;;;25.49;44.38
30708;BME280;17458;48.958;8.284;2023-09-19T10:40:48;100331.53;;;25.03;44.58
30708;BME280;17458;48.958;8.284;2023-09-19T10:43:34;100337.88;;;25.02;44.56
30708;BME280;17458;48.958;8.284;2023-09-19T10:46:19;100343.25;;;25.08;43.39
30708;BME280;17458;48.958;8.284;2023-09-19T10:49:04;100336.13;;;24.89;44.01
30708;BME280;17458;48.958;8.284;2023-09-19T10:51:51;100342.47;;;24.95;44.33
30708;BME280;17458;48.958;8.284;2023-09-19T10:54:38;100335.31;;;24.82;44.93
30708;BME280;17458;48.958;8.284;2023-09-19T10:57:25;100332.50;;;24.96;44.86
30708;BME280;17458;48.958;8.284;2023-09-19T11:00:11;100334.34;;;24.86;44.89
30708;BME280;17458;48.958;8.284;2023-09-19T11:06:17;100334.19;;;25.07;44.60
30708;BME280;17458;48.958;8.284;2023-09-19T11:09:04;100322.63;;;24.83;44.51
30708;BME280;17458;48.958;8.284;2023-09-19T11:11:54;100334.88;;;25.28;44.21
30708;BME280;17458;48.958;8.284;2023-09-19T11:14:40;100322.44;;;25.05;44.57
30708;BME280;17458;48.958;8.284;2023-09-19T11:20:19;100334.84;;;25.34;44.21
30708;BME280;17458;48.958;8.284;2023-09-19T11:25:57;100317.59;;;25.36;44.21
30708;BME280;17458;48.958;8.284;2023-09-19T11:28:41;100312.13;;;25.39;43.55
30708;BME280;17458;48.958;8.284;2023-09-19T11:31:55;100316.53;;;26.25;43.19
30708;BME280;17458;48.958;8.284;2023-09-19T11:34:40;100310.06;;;25.64;43.21
30708;BME280;17458;48.958;8.284;2023-09-19T11:40:16;100312.22;;;25.30;43.79
30708;BME280;17458;48.958;8.284;2023-09-19T11:43:29;100303.97;;;25.39;44.93
30708;BME280;17458;48.958;8.284;2023-09-19T11:46:16;100299.56;;;25.28;44.01
30708;BME280;17458;48.958;8.284;2023-09-19T11:49:08;100298.59;;;26.08;43.73
30708;BME280;17458;48.958;8.284;2023-09-19T11:51:54;100300.91;;;25.71;43.90
30708;BME280;17458;48.958;8.284;2023-09-19T11:54:40;100293.34;;;25.95;42.81
30708;BME280;17458;48.958;8.284;2023-09-19T11:57:25;100296.69;;;26.15;41.65
30708;BME280;17458;48.958;8.284;2023-09-19T12:00:17;100292.06;;;26.22;42.64
30708;BME280;17458;48.958;8.284;2023-09-19T12:03:12;100287.25;;;25.74;42.43
30708;BME280;17458;48.958;8.284;2023-09-19T12:05:58;100283.81;;;25.56;43.44
30708;BME280;17458;48.958;8.284;2023-09-19T12:08:44;100281.97;;;25.59;43.35
30708;BME280;17458;48.958;8.284;2023-09-19T12:11:30;100276.97;;;25.98;43.46
30708;BME280;17458;48.958;8.284;2023-09-19T12:14:26;100274.38;;;25.89;42.49
30708;BME280;17458;48.958;8.284;2023-09-19T12:17:11;100271.81;;;25.76;42.31
30708;BME280;17458;48.958;8.284;2023-09-19T12:19:56;100270.19;;;25.62;43.21
30708;BME280;17458;48.958;8.284;2023-09-19T12:22:45;100274.63;;;25.70;43.24
30708;BME280;17458;48.958;8.284;2023-09-19T12:25:44;100270.31;;;25.50;43.01
30708;BME280;17458;48.958;8.284;2023-09-19T12:28:31;100260.25;;;25.58;42.65
30708;BME280;17458;48.958;8.284;2023-09-19T12:31:18;100265.66;;;26.25;42.18
30708;BME280;17458;48.958;8.284;2023-09-19T12:34:03;100245.69;;;26.29;41.50
30708;BME280;17458;48.958;8.284;2023-09-19T12:36:48;100252.00;;;26.31;42.63
30708;BME280;17458;48.958;8.284;2023-09-19T12:39:33;100246.75;;;26.16;40.99
30708;BME280;17458;48.958;8.284;2023-09-19T12:42:19;100242.56;;;25.95;41.81
30708;BME280;17458;48.958;8.284;2023-09-19T12:45:07;100243.22;;;26.68;41.23
30708;BME280;17458;48.958;8.284;2023-09-19T12:51:11;100244.22;;;27.14;40.75
30708;BME280;17458;48.958;8.284;2023-09-19T12:53:57;100229.97;;;26.99;40.66
30708;BME280;17458;48.958;8.284;2023-09-19T12:56:45;100235.00;;;26.71;40.62
30708;BME280;17458;48.958;8.284;2023-09-19T12:59:31;100234.38;;;26.55;40.76
30708;BME280;17458;48.958;8.284;2023-09-19T13:02:17;100231.28;;;26.21;40.35
30708;BME280;17458;48.958;8.284;2023-09-19T13:05:04;100226.81;;;26.72;41.44
30708;BME280;17458;48.958;8.284;2023-09-19T13:07:50;100223.50;;;27.06;40.84
30708;BME280;17458;48.958;8.284;2023-09-19T13:14:28;100219.13;;;27.42;39.63
30708;BME280;17458;48.958;8.284;2023-09-19T13:17:15;100230.97;;;27.41;40.20
30708;BME280;17458;48.958;8.284;2023-09-19T13:19:59;100226.38;;;26.97;39.41
30708;BME280;17458;48.958;8.284;2023-09-19T13:22:44;100224.72;;;26.87;40.27
30708;BME280;17458;48.958;8.284;2023-09-19T13:25:38;100209.44;;;26.79;40.88
30708;BME280;17458;48.958;8.284;2023-09-19T13:28:23;100220.28;;;27.30;40.17
30708;BME280;17458;48.958;8.284;2023-09-19T13:31:09;100208.44;;;27.31;39.37
30708;BME280;17458;48.958;8.284;2023-09-19T13:33:54;100221.81;;;26.99;40.08
30708;BME280;17458;48.958;8.284;2023-09-19T13:36:38;100218.56;;;27.25;39.60
30708;BME280;17458;48.958;8.284;2023-09-19T13:39:23;100203.81;;;26.89;39.93
30708;BME280;17458;48.958;8.284;2023-09-19T13:42:08;100208.69;;;27.19;40.65
30708;BME280;17458;48.958;8.284;2023-09-19T13:44:56;100202.94;;;26.85;39.07
30708;BME280;17458;48.958;8.284;2023-09-19T13:47:40;100200.31;;;26.28;40.68
30708;BME280;17458;48.958;8.284;2023-09-19T13:50:24;100188.75;;;26.12;41.21
30708;BME280;17458;48.958;8.284;2023-09-19T13:53:08;100191.78;;;26.51;40.29
30708;BME280;17458;48.958;8.284;2023-09-19T13:55:53;100203.00;;;26.31;41.64
30708;BME280;17458;48.958;8.284;2023-09-19T13:58:37;100189.59;;;26.71;40.53
30708;BME280;17458;48.958;8.284;2023-09-19T14:01:21;100192.03;;;26.87;39.06
30708;BME280;17458;48.958;8.284;2023-09-19T14:04:05;100192.59;;;27.07;40.80
30708;BME280;17458;48.958;8.284;2023-09-19T14:06:49;100189.69;;;27.14;38.64
30708;BME280;17458;48.958;8.284;2023-09-19T14:09:33;100196.38;;;27.43;38.83
30708;BME280;17458;48.958;8.284;2023-09-19T14:12:17;100183.69;;;26.96;39.33
30708;BME280;17458;48.958;8.284;2023-09-19T14:15:01;100185.19;;;26.64;40.04
30708;BME280;17458;48.958;8.284;2023-09-19T14:17:46;100181.78;;;27.01;40.08
30708;BME280;17458;48.958;8.284;2023-09-19T14:20:30;100190.25;;;26.84;40.11
30708;BME280;17458;48.958;8.284;2023-09-19T14:23:15;100182.31;;;26.72;39.57
30708;BME280;17458;48.958;8.284;2023-09-19T14:26:01;100182.31;;;26.72;39.89
30708;BME280;17458;48.958;8.284;2023-09-19T14:28:45;100183.13;;;26.77;40.00
30708;BME280;17458;48.958;8.284;2023-09-19T14:31:29;100176.22;;;26.58;40.38
30708;BME280;17458;48.958;8.284;2023-09-19T14:34:13;100174.28;;;26.66;39.52
30708;BME280;17458;48.958;8.284;2023-09-19T14:36:59;100176.16;;;27.10;39.74
30708;BME280;17458;48.958;8.284;2023-09-19T14:39:43;100175.28;;;26.60;39.77
30708;BME280;17458;48.958;8.284;2023-09-19T14:42:30;100176.84;;;26.21;39.96
30708;BME280;17458;48.958;8.284;2023-09-19T14:45:14;100167.44;;;26.40;39.94
30708;BME280;17458;48.958;8.284;2023-09-19T14:48:01;100170.72;;;26.61;39.81
30708;BME280;17458;48.958;8.284;2023-09-19T14:50:49;100169.84;;;26.59;41.07
30708;BME280;17458;48.958;8.284;2023-09-19T14:53:35;100168.53;;;26.27;41.17
30708;BME280;17458;48.958;8.284;2023-09-19T14:56:21;100167.88;;;25.53;42.02